Time;durP1;ratioP1;P1;durP2;ratioP2;P2;SDS_P1;SDS_P2;PMS_P1;PMS_P2;Temp;Humidity;BMP_temperature;BMP_pressure;BME280_temperature;BME280_humidity;BME280_pressure;Samples;Min_cycle;Max_cycle;Signal;HPM_P1;HPM_P2
2021/12/30 00:01:28;;;;;;;24.10;6.05;;;12.40;99.90;;;;;;4160575;28;20041;-66
2021/12/30 00:03:29;;;;;;;22.27;5.07;;;12.40;99.90;;;;;;4160123;28;20040;-66
2021/12/30 00:05:29;;;;;;;22.23;5.40;;;12.50;99.90;;;;;;4161404;28;20108;-66
2021/12/30 00:07:30;;;;;;;23.88;5.82;;;12.40;99.90;;;;;;4159724;28;20069;-67
2021/12/30 00:09:31;;;;;;;19.00;4.93;;;12.40;99.90;;;;;;4158559;28;20266;-67
2021/12/30 00:11:31;;;;;;;28.45;5.35;;;12.50;99.90;;;;;;4159256;28;20029;-67
2021/12/30 00:13:32;;;;;;;16.92;5.05;;;12.40;99.90;;;;;;4159440;28;20044;-66
2021/12/30 00:15:33;;;;;;;25.08;5.93;;;12.40;99.90;;;;;;4158070;28;20121;-66
2021/12/30 00:17:34;;;;;;;24.23;5.65;;;12.40;99.90;;;;;;4161058;28;20026;-67
2021/12/30 00:19:35;;;;;;;15.27;4.03;;;12.40;99.90;;;;;;4162038;28;20083;-66
2021/12/30 00:21:35;;;;;;;18.27;5.18;;;12.40;99.90;;;;;;4161167;28;20397;-66
2021/12/30 00:23:36;;;;;;;21.02;5.00;;;12.40;99.90;;;;;;4158734;28;20029;-66
2021/12/30 00:25:41;;;;;;;19.85;5.32;;;12.40;99.90;;;;;;4157470;28;20038;-66
2021/12/30 00:27:42;;;;;;;21.42;5.15;;;12.40;99.90;;;;;;4162738;28;20052;-66
2021/12/30 00:29:43;;;;;;;15.63;4.80;;;12.40;99.90;;;;;;4165382;28;20037;-66
2021/12/30 00:31:43;;;;;;;17.02;4.65;;;12.40;99.90;;;;;;4163964;28;20049;-66
2021/12/30 00:33:44;;;;;;;20.75;4.95;;;12.40;99.90;;;;;;4161991;28;20120;-66
2021/12/30 00:35:45;;;;;;;18.83;5.20;;;12.30;99.90;;;;;;4164640;28;20045;-66
2021/12/30 00:37:46;;;;;;;25.05;5.80;;;12.40;99.90;;;;;;4165086;28;20037;-66
2021/12/30 00:39:46;;;;;;;27.60;5.47;;;12.40;99.90;;;;;;4165039;28;20041;-66
2021/12/30 00:41:47;;;;;;;13.15;4.25;;;12.30;99.90;;;;;;4163037;28;20033;-66
2021/12/30 00:43:48;;;;;;;23.95;5.32;;;12.30;99.90;;;;;;4164598;28;20555;-66
2021/12/30 00:45:48;;;;;;;24.25;6.10;;;12.20;99.90;;;;;;4164196;28;20393;-66
2021/12/30 00:47:49;;;;;;;24.15;5.07;;;12.30;99.90;;;;;;4164811;28;20084;-67
2021/12/30 00:49:52;;;;;;;20.35;5.47;;;12.30;99.90;;;;;;4161712;28;20053;-67
2021/12/30 00:51:52;;;;;;;;;;;12.30;99.90;;;;;;4164387;28;20052;-66
2021/12/30 00:53:53;;;;;;;22.85;5.43;;;12.30;99.90;;;;;;4163007;28;19909;-66
2021/12/30 00:55:54;;;;;;;17.25;4.50;;;12.20;99.90;;;;;;4164014;28;20420;-66
2021/12/30 00:57:54;;;;;;;25.23;5.38;;;12.20;99.90;;;;;;4160843;28;20088;-68
2021/12/30 00:59:55;;;;;;;21.40;5.53;;;12.20;99.90;;;;;;4163679;28;20037;-67
2021/12/30 01:01:56;;;;;;;27.30;5.55;;;12.20;99.90;;;;;;4162723;28;20029;-67
2021/12/30 01:03:56;;;;;;;18.98;4.70;;;12.30;99.90;;;;;;4164576;28;20095;-67
2021/12/30 01:05:58;;;;;;;28.15;5.95;;;12.20;99.90;;;;;;4162753;28;20045;-67
2021/12/30 01:07:59;;;;;;;23.20;5.32;;;12.30;99.90;;;;;;4161145;28;20065;-67
2021/12/30 01:10:00;;;;;;;29.30;5.25;;;12.30;99.90;;;;;;4164571;28;20055;-66
2021/12/30 01:12:00;;;;;;;32.65;6.00;;;12.30;99.90;;;;;;4161698;28;20084;-67
2021/12/30 01:14:09;;;;;;;22.38;5.35;;;12.30;99.90;;;;;;4161803;28;20436;-66
2021/12/30 01:16:22;;;;;;;19.27;4.70;;;12.30;99.90;;;;;;4164185;28;20061;-66
2021/12/30 01:18:30;;;;;;;27.63;6.03;;;12.30;99.90;;;;;;4161577;28;20408;-66
2021/12/30 01:20:30;;;;;;;20.75;5.30;;;12.30;99.90;;;;;;4160016;28;20037;-67
2021/12/30 01:22:33;;;;;;;26.88;5.07;;;12.30;99.90;;;;;;4164145;28;20048;-67
2021/12/30 01:24:33;;;;;;;19.52;4.38;;;12.30;99.90;;;;;;4164367;28;20041;-68
2021/12/30 01:26:34;;;;;;;22.45;5.68;;;12.40;99.90;;;;;;4163518;28;20047;-67
2021/12/30 01:28:35;;;;;;;20.23;4.90;;;12.40;99.90;;;;;;4163529;28;20452;-67
2021/12/30 01:30:36;;;;;;;21.33;4.97;;;12.40;99.90;;;;;;4160910;28;20045;-66
2021/12/30 01:32:37;;;;;;;21.02;6.05;;;12.40;99.90;;;;;;4164190;28;20037;-66
2021/12/30 01:34:37;;;;;;;23.80;5.18;;;12.40;99.90;;;;;;4163563;28;20029;-66
2021/12/30 01:36:38;;;;;;;23.75;5.22;;;12.40;99.90;;;;;;4163115;28;20037;-66
2021/12/30 01:38:39;;;;;;;20.50;4.53;;;12.30;99.90;;;;;;4164393;28;20412;-67
2021/12/30 01:40:41;;;;;;;22.58;5.00;;;12.40;99.90;;;;;;4163652;28;20497;-66
2021/12/30 01:42:42;;;;;;;28.45;5.88;;;12.40;99.90;;;;;;4160622;28;20045;-67
2021/12/30 01:44:43;;;;;;;23.83;5.47;;;12.40;99.90;;;;;;4160507;28;20409;-66
2021/12/30 01:46:44;;;;;;;20.80;4.60;;;12.40;99.90;;;;;;4157612;28;20034;-66
2021/12/30 01:48:45;;;;;;;20.80;5.17;;;12.40;99.90;;;;;;4163738;28;20797;-66
2021/12/30 01:50:46;;;;;;;15.65;4.28;;;12.40;99.90;;;;;;4162061;28;20040;-66
2021/12/30 01:52:47;;;;;;;21.63;5.00;;;12.40;99.90;;;;;;4163867;28;20037;-66
2021/12/30 01:54:48;;;;;;;24.13;5.28;;;12.40;99.90;;;;;;4163957;28;20037;-66
2021/12/30 01:56:50;;;;;;;19.67;5.10;;;12.40;99.90;;;;;;4163561;28;20099;-66
2021/12/30 01:58:53;;;;;;;20.40;4.85;;;12.50;99.90;;;;;;4153429;28;20108;-66
2021/12/30 02:00:53;;;;;;;31.15;5.20;;;12.50;99.90;;;;;;4161451;28;20045;-66
2021/12/30 02:02:54;;;;;;;21.05;4.75;;;12.50;99.90;;;;;;4163942;28;20463;-66
2021/12/30 02:04:55;;;;;;;30.23;6.13;;;12.50;99.90;;;;;;4160960;28;20045;-66
2021/12/30 02:06:56;;;;;;;18.23;4.72;;;12.40;99.90;;;;;;4163147;28;20037;-66
2021/12/30 02:08:59;;;;;;;21.23;4.68;;;12.50;99.90;;;;;;4162359;28;20038;-67
2021/12/30 02:11:00;;;;;;;15.75;4.30;;;12.50;99.90;;;;;;4163048;28;20129;-67
2021/12/30 02:13:01;;;;;;;18.70;3.95;;;12.50;99.90;;;;;;4160735;28;20469;-67
2021/12/30 02:15:07;;;;;;;15.15;4.15;;;12.40;99.90;;;;;;4161972;28;20037;-67
2021/12/30 02:17:08;;;;;;;16.23;3.95;;;12.50;99.90;;;;;;4159236;28;20038;-66
2021/12/30 02:19:10;;;;;;;21.20;5.20;;;12.50;99.90;;;;;;4164188;28;20057;-66
2021/12/30 02:21:11;;;;;;;22.05;4.72;;;12.50;99.90;;;;;;4163271;28;20092;-66
2021/12/30 02:23:14;;;;;;;22.63;5.10;;;12.40;99.90;;;;;;4162720;28;20038;-66
2021/12/30 02:25:14;;;;;;;21.20;4.68;;;12.40;99.90;;;;;;4162591;28;20144;-66
2021/12/30 02:27:15;;;;;;;13.82;3.65;;;12.50;99.90;;;;;;4163331;28;20038;-67
2021/12/30 02:29:16;;;;;;;23.08;4.90;;;12.50;99.90;;;;;;4163496;28;20033;-66
2021/12/30 02:31:21;;;;;;;17.45;4.40;;;12.50;99.90;;;;;;4163198;28;20073;-66
2021/12/30 02:33:22;;;;;;;17.17;4.65;;;12.50;99.90;;;;;;4163668;28;20033;-66
2021/12/30 02:35:23;;;;;;;18.85;4.78;;;12.50;99.90;;;;;;4160985;28;20052;-67
2021/12/30 02:37:23;;;;;;;21.92;4.63;;;12.50;99.90;;;;;;4160341;28;20045;-66
2021/12/30 02:39:24;;;;;;;20.38;4.63;;;12.50;99.90;;;;;;4162631;28;20041;-66
2021/12/30 02:41:27;;;;;;;13.32;4.32;;;12.50;99.90;;;;;;4162414;28;20041;-66
2021/12/30 02:43:30;;;;;;;16.92;4.65;;;12.60;99.90;;;;;;4161179;28;20049;-67
2021/12/30 02:45:31;;;;;;;15.60;4.10;;;12.60;99.90;;;;;;4161021;28;20052;-66
2021/12/30 02:47:34;;;;;;;18.98;4.90;;;12.60;99.90;;;;;;4162450;28;20072;-66
2021/12/30 02:49:35;;;;;;;18.73;4.63;;;12.60;99.90;;;;;;4161407;28;20130;-67
2021/12/30 02:51:36;;;;;;;22.10;4.70;;;12.60;99.90;;;;;;4158488;28;20461;-66
2021/12/30 02:53:37;;;;;;;18.50;4.65;;;12.60;99.90;;;;;;4163092;28;20068;-66
2021/12/30 02:55:39;;;;;;;23.92;5.38;;;12.60;99.90;;;;;;4162220;28;20061;-66
2021/12/30 02:57:40;;;;;;;12.25;3.45;;;12.60;99.90;;;;;;4163981;28;20033;-66
2021/12/30 02:59:40;;;;;;;14.82;3.85;;;12.60;99.90;;;;;;4161628;28;20502;-66
2021/12/30 03:01:41;;;;;;;14.27;3.67;;;12.60;99.90;;;;;;4162135;28;20412;-66
2021/12/30 03:03:42;;;;;;;22.05;4.85;;;12.70;99.90;;;;;;4162161;28;20120;-66
2021/12/30 03:05:43;;;;;;;15.00;4.40;;;12.70;99.90;;;;;;4162335;28;20179;-67
2021/12/30 03:07:44;;;;;;;19.10;3.88;;;12.60;99.90;;;;;;4163458;28;20025;-66
2021/12/30 03:09:46;;;;;;;14.88;2.92;;;12.70;99.90;;;;;;4161324;28;20045;-67
2021/12/30 03:11:46;;;;;;;10.18;3.33;;;12.70;99.90;;;;;;4162387;28;20029;-67
2021/12/30 03:13:48;;;;;;;17.55;3.90;;;12.70;99.90;;;;;;4163674;28;20482;-66
2021/12/30 03:15:49;;;;;;;15.82;4.00;;;12.70;99.90;;;;;;4163071;28;20090;-66
2021/12/30 03:17:50;;;;;;;11.15;3.38;;;12.70;99.90;;;;;;4163120;28;20135;-66
2021/12/30 03:19:54;;;;;;;19.05;4.32;;;12.70;99.90;;;;;;4162539;28;20042;-66
2021/12/30 03:21:56;;;;;;;16.05;4.40;;;12.70;99.90;;;;;;4162554;28;20469;-66
2021/12/30 03:24:01;;;;;;;10.07;3.33;;;12.80;99.90;;;;;;4163144;28;20045;-66
2021/12/30 03:26:04;;;;;;;12.38;3.50;;;12.80;99.90;;;;;;4161425;28;20484;-66
2021/12/30 03:28:05;;;;;;;;;;;12.80;99.90;;;;;;4160953;28;20468;-66
2021/12/30 03:30:09;;;;;;;18.15;4.35;;;12.80;99.90;;;;;;4162765;28;20011;-67
2021/12/30 03:32:10;;;;;;;17.08;4.13;;;12.80;99.90;;;;;;4162142;28;20382;-67
2021/12/30 03:34:10;;;;;;;18.67;4.50;;;12.80;99.90;;;;;;4162863;28;20128;-66
2021/12/30 03:36:12;;;;;;;14.73;3.58;;;12.80;99.90;;;;;;4158214;28;20034;-66
2021/12/30 03:38:13;;;;;;;14.52;4.00;;;12.80;99.90;;;;;;4163013;28;20076;-66
2021/12/30 03:40:16;;;;;;;11.00;2.92;;;12.80;99.90;;;;;;4160688;28;20037;-67
2021/12/30 03:42:16;;;;;;;12.18;3.72;;;12.80;99.90;;;;;;4162779;28;20457;-66
2021/12/30 03:44:17;;;;;;;12.73;4.10;;;12.90;99.90;;;;;;4161366;28;20047;-66
2021/12/30 03:46:18;;;;;;;15.85;4.00;;;12.90;99.90;;;;;;4161229;28;20044;-66
2021/12/30 03:48:19;;;;;;;13.85;3.55;;;12.90;99.90;;;;;;4163678;28;20354;-66
2021/12/30 03:50:24;;;;;;;12.20;3.90;;;12.90;99.90;;;;;;4162251;28;20041;-66
2021/12/30 03:52:30;;;;;;;11.70;3.97;;;12.90;99.90;;;;;;4162951;28;20488;-66
2021/12/30 03:54:31;;;;;;;16.42;3.67;;;12.90;99.90;;;;;;4161639;28;20037;-67
2021/12/30 03:56:32;;;;;;;11.80;3.55;;;13.00;99.90;;;;;;4162681;28;20044;-67
2021/12/30 03:58:33;;;;;;;8.80;3.83;;;13.00;99.90;;;;;;4163619;28;20033;-67
2021/12/30 04:00:36;;;;;;;15.50;3.90;;;13.00;99.90;;;;;;4162116;28;20038;-66
2021/12/30 04:02:37;;;;;;;14.18;3.90;;;13.00;99.90;;;;;;4159614;28;20037;-66
2021/12/30 04:04:38;;;;;;;14.02;4.07;;;13.00;99.90;;;;;;4163779;28;20056;-66
2021/12/30 04:06:39;;;;;;;15.65;3.97;;;13.00;99.90;;;;;;4162377;28;20073;-66
2021/12/30 04:08:40;;;;;;;9.57;3.83;;;13.00;99.90;;;;;;4163695;28;20041;-66
2021/12/30 04:10:40;;;;;;;8.13;3.25;;;13.00;99.90;;;;;;4162656;28;20065;-66
2021/12/30 04:12:43;;;;;;;12.73;3.40;;;13.00;99.90;;;;;;4163813;28;20034;-66
2021/12/30 04:14:44;;;;;;;10.18;3.92;;;13.10;99.90;;;;;;4164617;28;20460;-66
2021/12/30 04:16:45;;;;;;;10.48;3.67;;;13.10;99.90;;;;;;4163321;28;20037;-66
2021/12/30 04:18:48;;;;;;;9.60;3.80;;;13.00;99.90;;;;;;4163657;28;20087;-66
2021/12/30 04:20:49;;;;;;;9.02;3.65;;;13.00;99.90;;;;;;4164034;28;20029;-66
2021/12/30 04:22:49;;;;;;;6.30;3.00;;;13.10;99.90;;;;;;4164646;28;20404;-66
2021/12/30 04:24:50;;;;;;;7.85;3.42;;;13.10;99.90;;;;;;4164305;28;20060;-66
2021/12/30 04:26:51;;;;;;;6.72;2.55;;;13.10;99.90;;;;;;4163253;28;20041;-66
2021/12/30 04:28:51;;;;;;;9.15;2.80;;;13.10;99.90;;;;;;4163886;28;20037;-66
2021/12/30 04:30:52;;;;;;;4.53;2.10;;;13.10;99.90;;;;;;4162775;28;20504;-66
2021/12/30 04:32:53;;;;;;;4.63;2.33;;;13.20;99.90;;;;;;4163366;28;20065;-66
2021/12/30 04:34:54;;;;;;;4.85;2.30;;;13.20;99.90;;;;;;4162971;28;20037;-66
2021/12/30 04:36:58;;;;;;;5.93;2.35;;;13.20;99.90;;;;;;4162643;28;20458;-66
2021/12/30 04:38:58;;;;;;;3.15;1.80;;;13.20;99.90;;;;;;4163095;28;20046;-66
2021/12/30 04:41:00;;;;;;;4.03;1.90;;;13.20;99.90;;;;;;4162280;28;20399;-66
2021/12/30 04:43:01;;;;;;;2.35;1.50;;;13.30;99.90;;;;;;4161850;28;20472;-67
2021/12/30 04:45:03;;;;;;;3.80;1.75;;;13.30;99.90;;;;;;4167130;28;20050;-67
2021/12/30 04:47:04;;;;;;;3.30;1.63;;;13.30;99.90;;;;;;4162214;28;20084;-67
2021/12/30 04:49:05;;;;;;;2.45;1.40;;;13.30;99.90;;;;;;4154860;28;20070;-66
2021/12/30 04:51:06;;;;;;;3.75;1.85;;;13.30;99.90;;;;;;4162136;28;20033;-66
2021/12/30 04:53:06;;;;;;;3.95;1.73;;;13.30;99.90;;;;;;4162982;28;20037;-66
2021/12/30 04:55:08;;;;;;;4.38;2.05;;;13.30;99.90;;;;;;4162474;28;20045;-67
2021/12/30 04:57:09;;;;;;;5.55;2.30;;;13.40;99.90;;;;;;4161681;28;20387;-66
2021/12/30 04:59:09;;;;;;;2.50;1.70;;;13.30;99.90;;;;;;4162771;28;20033;-66
2021/12/30 05:01:10;;;;;;;2.80;1.90;;;13.40;99.90;;;;;;4162016;28;20033;-66
2021/12/30 05:03:14;;;;;;;3.00;2.20;;;13.40;99.90;;;;;;4159702;28;20435;-66
2021/12/30 05:05:15;;;;;;;4.43;2.55;;;13.30;99.90;;;;;;4161179;28;20136;-66
2021/12/30 05:07:15;;;;;;;2.47;2.03;;;13.40;99.90;;;;;;4162464;28;20041;-66
2021/12/30 05:09:16;;;;;;;3.75;2.40;;;13.30;99.90;;;;;;4162591;28;20044;-67
2021/12/30 05:11:17;;;;;;;5.68;2.60;;;13.40;99.90;;;;;;4161467;28;20555;-66
2021/12/30 05:13:18;;;;;;;3.97;2.03;;;13.30;99.90;;;;;;4160731;28;20572;-66
2021/12/30 05:15:19;;;;;;;3.03;2.25;;;13.30;99.90;;;;;;4164362;28;20128;-66
2021/12/30 05:17:19;;;;;;;3.67;1.80;;;13.30;99.90;;;;;;4163870;28;20037;-66
2021/12/30 05:19:20;;;;;;;4.03;2.25;;;13.30;99.90;;;;;;4163538;28;20091;-66
2021/12/30 05:21:20;;;;;;;2.58;2.03;;;13.40;99.90;;;;;;4160625;28;20429;-66
2021/12/30 05:23:23;;;;;;;3.25;2.40;;;13.40;99.90;;;;;;4165659;28;20481;-66
2021/12/30 05:25:25;;;;;;;3.15;2.30;;;13.40;99.90;;;;;;4165287;28;20056;-67
2021/12/30 05:27:25;;;;;;;3.45;2.45;;;13.40;99.90;;;;;;4165793;28;20559;-66
2021/12/30 05:29:26;;;;;;;2.38;1.88;;;13.40;99.90;;;;;;4164888;28;20037;-66
2021/12/30 05:31:27;;;;;;;2.50;2.00;;;13.40;99.90;;;;;;4158147;28;20505;-66
2021/12/30 05:33:27;;;;;;;2.67;1.83;;;13.40;99.90;;;;;;4165149;28;20033;-66
2021/12/30 05:35:28;;;;;;;4.35;1.92;;;13.40;99.90;;;;;;4164250;28;20071;-66
2021/12/30 05:37:29;;;;;;;3.78;2.30;;;13.40;99.90;;;;;;4160445;28;20117;-66
2021/12/30 05:39:30;;;;;;;4.82;2.22;;;13.50;99.90;;;;;;4164386;28;20034;-66
2021/12/30 05:41:30;;;;;;;1.85;1.67;;;13.50;99.90;;;;;;4161043;28;20033;-68
2021/12/30 05:43:31;;;;;;;2.72;1.50;;;13.50;99.90;;;;;;4164500;28;20038;-67
2021/12/30 05:45:32;;;;;;;3.72;1.60;;;13.50;99.90;;;;;;4161747;28;20108;-67
2021/12/30 05:47:33;;;;;;;1.65;1.30;;;13.50;99.90;;;;;;4162348;28;20033;-67
2021/12/30 05:49:34;;;;;;;2.58;1.50;;;13.50;99.90;;;;;;4161839;28;20053;-66
2021/12/30 05:51:35;;;;;;;3.53;1.73;;;13.50;99.90;;;;;;4164111;28;20033;-66
2021/12/30 05:53:35;;;;;;;3.72;1.70;;;13.50;99.90;;;;;;4161438;28;20125;-67
2021/12/30 05:55:36;;;;;;;1.92;1.60;;;13.60;99.90;;;;;;4163550;28;20045;-67
2021/12/30 05:57:37;;;;;;;2.35;1.67;;;13.60;99.90;;;;;;4164519;28;20392;-66
2021/12/30 05:59:38;;;;;;;1.67;1.40;;;13.60;99.90;;;;;;4164652;28;20021;-67
2021/12/30 06:01:39;;;;;;;1.85;1.70;;;13.60;99.90;;;;;;4163884;28;20133;-66
2021/12/30 06:03:39;;;;;;;2.03;1.83;;;13.60;99.90;;;;;;4164457;28;20045;-67
2021/12/30 06:05:40;;;;;;;1.90;1.50;;;13.60;99.90;;;;;;4163559;28;20093;-66
2021/12/30 06:07:41;;;;;;;3.25;1.73;;;13.70;99.90;;;;;;4160451;28;20041;-66
2021/12/30 06:09:42;;;;;;;1.98;1.77;;;13.70;99.90;;;;;;4164648;28;20140;-66
2021/12/30 06:11:43;;;;;;;2.20;2.00;;;13.70;99.90;;;;;;4160406;28;20037;-67
2021/12/30 06:13:43;;;;;;;2.47;2.00;;;13.70;99.90;;;;;;4163510;28;20033;-66
2021/12/30 06:15:44;;;;;;;1.90;1.55;;;13.70;99.90;;;;;;4162300;28;20064;-66
2021/12/30 06:17:44;;;;;;;2.00;1.80;;;13.70;99.90;;;;;;4162367;28;20041;-67
2021/12/30 06:19:45;;;;;;;3.15;2.05;;;13.70;99.90;;;;;;4164696;28;20033;-67
2021/12/30 06:21:46;;;;;;;3.30;1.85;;;13.70;99.90;;;;;;4163977;28;20514;-67
2021/12/30 06:23:46;;;;;;;1.55;1.45;;;13.70;99.90;;;;;;4162127;28;20476;-67
2021/12/30 06:25:47;;;;;;;2.20;1.77;;;13.80;99.90;;;;;;4163617;28;20041;-67
2021/12/30 06:27:48;;;;;;;3.53;1.95;;;13.70;99.90;;;;;;4161557;28;20033;-67
2021/12/30 06:29:48;;;;;;;1.98;1.55;;;13.80;99.90;;;;;;4164077;28;20029;-66
2021/12/30 06:31:49;;;;;;;1.98;1.65;;;13.70;99.90;;;;;;4161263;28;20025;-67
2021/12/30 06:33:49;;;;;;;3.67;1.52;;;13.80;99.90;;;;;;4163133;28;20384;-67
2021/12/30 06:35:50;;;;;;;2.75;1.58;;;13.80;99.90;;;;;;4163016;28;20045;-67
2021/12/30 06:37:51;;;;;;;1.60;1.30;;;13.80;99.90;;;;;;4161184;28;20038;-67
2021/12/30 06:39:51;;;;;;;2.28;1.42;;;13.80;99.90;;;;;;4162447;28;20048;-67
2021/12/30 06:41:52;;;;;;;1.77;1.20;;;13.80;99.90;;;;;;4160803;28;20472;-67
2021/12/30 06:43:53;;;;;;;1.13;1.02;;;13.90;99.90;;;;;;4162797;28;20045;-67
2021/12/30 06:45:53;;;;;;;2.53;1.13;;;13.90;99.90;;;;;;4161243;28;20093;-67
2021/12/30 06:47:54;;;;;;;1.95;1.27;;;13.90;99.90;;;;;;4159820;28;20036;-67
2021/12/30 06:50:00;;;;;;;1.23;1.13;;;13.90;99.90;;;;;;4160336;28;20034;-67
2021/12/30 06:52:02;;;;;;;2.10;1.30;;;13.90;99.90;;;;;;4162314;28;20393;-67
2021/12/30 06:54:04;;;;;;;1.45;1.25;;;13.90;99.90;;;;;;4159996;28;20132;-68
2021/12/30 06:56:05;;;;;;;1.23;1.13;;;13.90;99.90;;;;;;4162536;28;20509;-67
2021/12/30 06:58:06;;;;;;;1.38;1.27;;;14.00;99.90;;;;;;4160449;28;20136;-67
2021/12/30 07:00:08;;;;;;;1.45;1.13;;;14.00;99.90;;;;;;4162830;28;20044;-68
2021/12/30 07:02:09;;;;;;;1.55;1.00;;;14.00;99.90;;;;;;4159276;28;20042;-67
2021/12/30 07:04:09;;;;;;;2.28;1.10;;;14.00;99.90;;;;;;4163382;28;20072;-67
2021/12/30 07:06:10;;;;;;;4.60;1.25;;;14.00;99.90;;;;;;4160821;28;20063;-67
2021/12/30 07:08:10;;;;;;;1.65;1.10;;;14.00;99.90;;;;;;4164737;28;20036;-67
2021/12/30 07:10:12;;;;;;;0.88;0.80;;;14.00;99.90;;;;;;4157586;28;20502;-68
2021/12/30 07:12:12;;;;;;;3.22;1.13;;;13.90;99.90;;;;;;4163942;28;20052;-67
2021/12/30 07:14:13;;;;;;;1.88;0.88;;;14.00;99.90;;;;;;4162597;28;20041;-67
2021/12/30 07:16:14;;;;;;;1.20;0.70;;;14.00;99.90;;;;;;4162501;28;20037;-67
2021/12/30 07:18:14;;;;;;;0.80;0.80;;;14.00;99.90;;;;;;4163760;28;20069;-67
2021/12/30 07:20:16;;;;;;;0.60;0.60;;;14.00;99.90;;;;;;4162402;28;20041;-67
2021/12/30 07:22:16;;;;;;;0.80;0.80;;;14.00;99.90;;;;;;4160465;28;20030;-67
2021/12/30 07:24:20;;;;;;;2.10;0.90;;;14.00;99.90;;;;;;4159217;28;20129;-67
2021/12/30 07:26:21;;;;;;;2.90;1.23;;;14.00;99.90;;;;;;4160981;28;25674;-67
2021/12/30 07:28:22;;;;;;;1.10;0.80;;;14.00;99.90;;;;;;4162810;28;20044;-67
2021/12/30 07:30:24;;;;;;;0.70;0.70;;;14.10;99.90;;;;;;4161928;28;20087;-67
2021/12/30 07:32:26;;;;;;;0.82;0.70;;;14.00;99.90;;;;;;4162365;28;20038;-67
2021/12/30 07:34:26;;;;;;;1.17;0.90;;;14.00;99.90;;;;;;4160624;28;20187;-67
2021/12/30 07:36:27;;;;;;;0.82;0.68;;;14.00;99.90;;;;;;4162192;28;20045;-67
2021/12/30 07:38:28;;;;;;;0.65;0.65;;;14.00;99.90;;;;;;4163080;28;20444;-67
2021/12/30 07:40:29;;;;;;;1.33;0.90;;;14.00;99.90;;;;;;4157886;28;20034;-67
2021/12/30 07:42:30;;;;;;;1.08;0.77;;;14.10;99.90;;;;;;4163511;28;20052;-67
2021/12/30 07:44:30;;;;;;;0.82;0.60;;;14.10;99.90;;;;;;4161843;28;20037;-67
2021/12/30 07:46:31;;;;;;;1.75;0.88;;;14.10;99.90;;;;;;4159257;28;20389;-67
2021/12/30 07:48:32;;;;;;;1.67;0.90;;;14.00;99.90;;;;;;4158944;28;20791;-69
2021/12/30 07:50:33;;;;;;;0.93;0.55;;;14.10;99.90;;;;;;4162285;28;20051;-68
2021/12/30 07:52:34;;;;;;;1.13;0.73;;;14.10;99.90;;;;;;4162853;28;20059;-68
2021/12/30 07:54:35;;;;;;;1.52;0.75;;;14.10;99.90;;;;;;4163063;28;20041;-68
2021/12/30 07:56:35;;;;;;;0.40;0.40;;;14.10;99.90;;;;;;4162322;28;20069;-68
2021/12/30 07:58:36;;;;;;;1.38;0.80;;;14.10;99.90;;;;;;4159608;28;20029;-68
2021/12/30 08:00:37;;;;;;;0.43;0.43;;;14.10;99.90;;;;;;4162454;28;20043;-68
2021/12/30 08:02:40;;;;;;;1.02;0.60;;;14.10;99.90;;;;;;4162380;28;20369;-67
2021/12/30 08:04:41;;;;;;;1.58;0.75;;;14.10;99.90;;;;;;4160593;28;20056;-67
2021/12/30 08:06:42;;;;;;;2.15;0.63;;;14.10;99.90;;;;;;4159440;28;20525;-68
2021/12/30 08:08:44;;;;;;;1.10;0.90;;;14.10;99.90;;;;;;4162577;28;20487;-67
2021/12/30 08:10:45;;;;;;;1.77;0.90;;;14.10;99.90;;;;;;4161056;28;20041;-67
2021/12/30 08:12:47;;;;;;;1.05;0.93;;;14.10;99.90;;;;;;4163987;28;20041;-67
2021/12/30 08:14:47;;;;;;;0.90;0.68;;;14.10;99.90;;;;;;4161521;28;20052;-67
2021/12/30 08:16:48;;;;;;;0.95;0.60;;;14.10;99.90;;;;;;4159376;28;20037;-68
2021/12/30 08:18:49;;;;;;;1.45;0.90;;;14.10;99.90;;;;;;4163039;28;20496;-67
2021/12/30 08:20:49;;;;;;;0.85;0.73;;;14.10;99.90;;;;;;4160556;28;20047;-67
2021/12/30 08:22:51;;;;;;;2.13;0.77;;;14.10;99.90;;;;;;4162635;28;20036;-68
2021/12/30 08:24:52;;;;;;;1.35;0.80;;;14.10;99.90;;;;;;4162157;28;20456;-68
2021/12/30 08:26:52;;;;;;;0.60;0.60;;;14.10;99.90;;;;;;4137133;28;20045;-67
2021/12/30 08:28:53;;;;;;;1.38;0.80;;;14.00;99.90;;;;;;4164671;28;20033;-67
2021/12/30 08:30:54;;;;;;;2.15;0.98;;;14.10;99.90;;;;;;4162141;28;20091;-67
2021/12/30 08:32:55;;;;;;;0.60;0.60;;;14.10;99.90;;;;;;4159070;28;20034;-67
2021/12/30 08:34:55;;;;;;;3.20;0.65;;;14.10;99.90;;;;;;4162152;28;20037;-68
2021/12/30 08:36:56;;;;;;;0.65;0.65;;;14.10;99.90;;;;;;4162808;28;20087;-67
2021/12/30 08:38:57;;;;;;;2.15;0.70;;;14.10;99.90;;;;;;4158905;28;20103;-68
2021/12/30 08:40:58;;;;;;;1.00;0.45;;;14.10;99.90;;;;;;4149724;28;20042;-69
2021/12/30 08:42:59;;;;;;;1.20;0.82;;;14.10;99.90;;;;;;4167744;28;20041;-69
2021/12/30 08:45:01;;;;;;;3.17;1.02;;;14.10;99.90;;;;;;4163761;28;20565;-68
2021/12/30 08:47:01;;;;;;;1.10;0.80;;;14.10;99.90;;;;;;4161286;28;20033;-68
2021/12/30 08:49:02;;;;;;;1.30;0.90;;;14.10;99.90;;;;;;4165217;28;20034;-69
2021/12/30 08:51:04;;;;;;;1.20;0.68;;;14.10;99.90;;;;;;4165520;28;20041;-68
2021/12/30 08:53:08;;;;;;;1.30;0.70;;;14.10;99.90;;;;;;4161615;28;20065;-69
2021/12/30 08:55:09;;;;;;;1.27;0.80;;;14.10;99.90;;;;;;4165860;28;20029;-70
2021/12/30 08:57:11;;;;;;;4.82;0.90;;;14.10;99.90;;;;;;4165567;28;20040;-69
2021/12/30 08:59:13;;;;;;;0.50;0.50;;;14.10;99.90;;;;;;4165666;28;20083;-68
2021/12/30 09:01:14;;;;;;;1.58;0.70;;;14.10;99.90;;;;;;4172704;28;20430;-69
2021/12/30 09:03:16;;;;;;;0.73;0.70;;;14.10;99.90;;;;;;4165190;28;20053;-68
2021/12/30 09:05:17;;;;;;;0.88;0.68;;;14.10;99.90;;;;;;4165953;28;20240;-69
2021/12/30 09:07:19;;;;;;;0.70;0.60;;;14.10;99.90;;;;;;4163013;28;20049;-69
2021/12/30 09:09:20;;;;;;;1.23;0.70;;;14.10;99.90;;;;;;4166753;28;20468;-68
2021/12/30 09:11:24;;;;;;;2.40;1.10;;;14.10;99.90;;;;;;4159349;28;20036;-67
2021/12/30 09:13:25;;;;;;;0.70;0.45;;;14.10;99.90;;;;;;4148210;28;20034;-68
2021/12/30 09:15:25;;;;;;;0.88;0.80;;;14.20;99.90;;;;;;4156742;28;20455;-68
2021/12/30 09:17:26;;;;;;;2.70;0.88;;;14.20;99.90;;;;;;4166293;28;20041;-68
2021/12/30 09:19:27;;;;;;;0.52;0.52;;;14.20;99.90;;;;;;4165964;28;20485;-68
2021/12/30 09:21:27;;;;;;;2.30;0.80;;;14.20;99.90;;;;;;4165586;28;20037;-68
2021/12/30 09:23:28;;;;;;;1.00;0.70;;;14.20;99.90;;;;;;4163584;28;20044;-68
2021/12/30 09:25:30;;;;;;;0.85;0.50;;;14.20;99.90;;;;;;4164746;28;20060;-68
2021/12/30 09:27:31;;;;;;;0.63;0.63;;;14.30;99.90;;;;;;4164477;28;20479;-68
2021/12/30 09:29:32;;;;;;;1.23;0.80;;;14.20;99.90;;;;;;4159825;28;20028;-69
2021/12/30 09:31:36;;;;;;;1.05;0.82;;;14.30;99.90;;;;;;4165489;28;20083;-69
2021/12/30 09:33:36;;;;;;;1.00;0.90;;;14.30;99.90;;;;;;4163390;28;20052;-69
2021/12/30 09:35:37;;;;;;;2.72;1.30;;;14.30;99.90;;;;;;4162895;28;20037;-68
2021/12/30 09:37:41;;;;;;;1.27;0.90;;;14.30;99.90;;;;;;4165177;28;20148;-68
2021/12/30 09:39:42;;;;;;;1.15;0.80;;;14.40;99.90;;;;;;4139944;28;20042;-68
2021/12/30 09:41:45;;;;;;;1.48;0.88;;;14.40;99.90;;;;;;4172608;28;20526;-69
2021/12/30 09:43:49;;;;;;;2.28;1.10;;;14.40;99.90;;;;;;4171755;28;20465;-68
2021/12/30 09:45:50;;;;;;;2.95;1.23;;;14.50;99.90;;;;;;4148187;28;20488;-69
2021/12/30 09:47:55;;;;;;;1.75;1.08;;;14.50;99.90;;;;;;4166144;28;20037;-69
2021/12/30 09:49:55;;;;;;;2.00;1.25;;;14.50;99.90;;;;;;4166014;28;20033;-68
2021/12/30 09:51:56;;;;;;;1.38;1.00;;;14.60;99.90;;;;;;4166021;28;20029;-69
2021/12/30 09:53:57;;;;;;;1.73;1.10;;;14.60;99.90;;;;;;4161996;28;20396;-68
2021/12/30 09:55:59;;;;;;;3.85;1.38;;;14.60;99.90;;;;;;4162822;28;20041;-68
2021/12/30 09:58:00;;;;;;;2.33;0.98;;;14.60;99.90;;;;;;4149860;28;20032;-68
2021/12/30 10:00:03;;;;;;;1.05;0.85;;;14.60;99.90;;;;;;4167598;28;20034;-68
2021/12/30 10:02:04;;;;;;;2.28;1.23;;;14.60;99.90;;;;;;4164899;28;20033;-68
2021/12/30 10:04:07;;;;;;;1.88;1.20;;;14.60;99.90;;;;;;4164858;28;20047;-68
2021/12/30 10:06:11;;;;;;;1.70;1.00;;;14.60;99.90;;;;;;4163062;28;20056;-68
2021/12/30 10:08:16;;;;;;;1.98;1.38;;;14.70;99.90;;;;;;4165818;28;20520;-68
2021/12/30 10:10:30;;;;;;;1.42;1.13;;;14.70;99.90;;;;;;4163077;28;20053;-69
2021/12/30 10:12:44;;;;;;;3.78;1.38;;;14.70;99.90;;;;;;4165348;28;20216;-69
2021/12/30 10:14:52;;;;;;;2.47;1.17;;;14.70;99.90;;;;;;4164056;28;20543;-68
2021/12/30 10:17:24;;;;;;;1.17;1.00;;;14.70;99.90;;;;;;4161350;28;20045;-69
2021/12/30 10:19:29;;;;;;;2.30;0.90;;;14.80;99.90;;;;;;4168392;28;20095;-68
2021/12/30 10:21:31;;;;;;;1.83;0.93;;;14.80;99.90;;;;;;4156301;28;20029;-68
2021/12/30 10:23:32;;;;;;;2.17;0.85;;;14.80;99.90;;;;;;4164134;28;20504;-68
2021/12/30 10:25:37;;;;;;;3.10;1.38;;;14.80;99.90;;;;;;4164213;28;20797;-67
2021/12/30 10:27:38;;;;;;;5.13;2.22;;;14.90;99.90;;;;;;4164717;28;20033;-68
2021/12/30 10:29:41;;;;;;;2.50;1.23;;;14.90;99.90;;;;;;4162664;28;20095;-68